Time;durP1;ratioP1;P1;durP2;ratioP2;P2;SDS_P1;SDS_P2;PMS_P1;PMS_P2;Temp;Humidity;BMP_temperature;BMP_pressure;BME280_temperature;BME280_humidity;BME280_pressure;Samples;Min_cycle;Max_cycle;Signal;HPM_P1;HPM_P2
2022/09/19 00:01:10;;;;;;;21.55;2.97;;;;;;;;;;4995518;28;93523;-65
2022/09/19 00:03:38;;;;;;;20.08;3.03;;;;;;;;;;4993655;28;92949;-65
2022/09/19 00:06:04;;;;;;;10.23;1.80;;;;;;;;;;4994753;28;93421;-66
2022/09/19 00:08:31;;;;;;;17.50;2.92;;;;;;;;;;4995467;28;91878;-66
2022/09/19 00:11:00;;;;;;;24.65;2.80;;;;;;;;;;4991426;28;92477;-66
2022/09/19 00:13:26;;;;;;;21.40;2.90;;;;;;;;;;4994966;28;93251;-66
2022/09/19 00:15:52;;;;;;;18.90;2.75;;;;;;;;;;4994146;28;94930;-66
2022/09/19 00:18:18;;;;;;;21.08;3.25;;;;;;;;;;4997163;28;95846;-68
2022/09/19 00:20:45;;;;;;;23.10;2.95;;;;;;;;;;4994960;28;92509;-66
2022/09/19 00:26:01;;;;;;;22.80;3.10;;;;;;;;;;4993948;28;93477;-66
2022/09/19 00:28:27;;;;;;;;;;;;;;;;;;4988312;28;92475;-65
2022/09/19 00:30:54;;;;;;;26.25;3.25;;;;;;;;;;4991847;28;123896;-66
2022/09/19 00:33:21;;;;;;;29.83;4.00;;;;;;;;;;4995068;28;92872;-66
2022/09/19 00:35:54;;;;;;;16.75;3.03;;;;;;;;;;5016161;28;93738;-66
2022/09/19 00:38:21;;;;;;;18.05;2.55;;;;;;;;;;4977759;28;94129;-65
2022/09/19 00:40:48;;;;;;;26.58;3.03;;;;;;;;;;4995437;28;95806;-65
2022/09/19 00:43:15;;;;;;;12.70;2.13;;;;;;;;;;4995420;28;96495;-65
2022/09/19 00:45:41;;;;;;;15.93;2.40;;;;;;;;;;5003358;28;93491;-65
2022/09/19 00:48:08;;;;;;;17.50;2.65;;;;;;;;;;4990429;28;92912;-66
2022/09/19 00:50:34;;;;;;;20.25;2.65;;;;;;;;;;5034833;27;93369;-66
2022/09/19 00:53:03;;;;;;;21.38;2.72;;;;;;;;;;5001909;28;94817;-65
2022/09/19 00:55:31;;;;;;;23.25;3.08;;;;;;;;;;4994201;28;92416;-65
2022/09/19 00:58:05;;;;;;;22.40;3.25;;;;;;;;;;4978090;28;94308;-65
2022/09/19 01:00:34;;;;;;;12.60;2.80;;;;;;;;;;4978987;28;93451;-67
2022/09/19 01:03:01;;;;;;;19.10;2.92;;;;;;;;;;4996845;28;92652;-66
2022/09/19 01:05:31;;;;;;;14.10;2.55;;;;;;;;;;4992668;28;95976;-66
2022/09/19 01:08:16;;;;;;;20.20;3.47;;;;;;;;;;4994679;28;92474;-66
2022/09/19 01:11:10;;;;;;;18.58;3.03;;;;;;;;;;5004747;28;93165;-66
2022/09/19 01:13:40;;;;;;;15.60;2.30;;;;;;;;;;4993553;28;93892;-66
2022/09/19 01:16:18;;;;;;;17.15;2.83;;;;;;;;;;4994367;28;92427;-66
2022/09/19 01:19:02;;;;;;;18.00;2.30;;;;;;;;;;4979952;28;93376;-65
2022/09/19 01:21:37;;;;;;;12.85;2.78;;;;;;;;;;4983028;28;93218;-66
2022/09/19 01:24:19;;;;;;;13.05;1.88;;;;;;;;;;4997774;28;91761;-66
2022/09/19 01:27:05;;;;;;;13.40;2.03;;;;;;;;;;4993579;28;93553;-66
2022/09/19 01:29:51;;;;;;;18.42;2.63;;;;;;;;;;4987230;28;93486;-66
2022/09/19 01:32:21;;;;;;;16.88;2.78;;;;;;;;;;5004696;28;95251;-66
2022/09/19 01:34:51;;;;;;;15.60;2.20;;;;;;;;;;4984898;28;93894;-66
2022/09/19 01:37:22;;;;;;;20.42;3.17;;;;;;;;;;4993166;28;92483;-66
2022/09/19 01:39:50;;;;;;;11.70;2.70;;;;;;;;;;4994736;28;93209;-66
2022/09/19 01:42:20;;;;;;;19.20;2.58;;;;;;;;;;4994094;28;93932;-66
2022/09/19 01:44:46;;;;;;;15.15;2.80;;;;;;;;;;4994621;28;92853;-65
2022/09/19 01:47:31;;;;;;;19.15;2.78;;;;;;;;;;5008722;28;93522;-65
2022/09/19 01:50:14;;;;;;;13.20;1.92;;;;;;;;;;4995606;28;92446;-65
2022/09/19 01:52:50;;;;;;;21.63;3.78;;;;;;;;;;5009189;28;92452;-66
2022/09/19 01:55:23;;;;;;;18.80;3.17;;;;;;;;;;4995745;28;93434;-66
2022/09/19 01:58:10;;;;;;;12.88;2.85;;;;;;;;;;4990437;28;95076;-66
2022/09/19 02:00:40;;;;;;;19.58;3.00;;;;;;;;;;5005622;28;95879;-65
2022/09/19 02:03:06;;;;;;;21.75;2.90;;;;;;;;;;4994804;28;93431;-66
2022/09/19 02:05:41;;;;;;;16.13;2.08;;;;;;;;;;4992949;28;92491;-66
2022/09/19 02:08:14;;;;;;;16.33;2.15;;;;;;;;;;5024419;28;93455;-66
2022/09/19 02:10:46;;;;;;;15.85;2.67;;;;;;;;;;4997352;28;93472;-66
2022/09/19 02:13:13;;;;;;;17.98;2.03;;;;;;;;;;5012369;28;93176;-67
2022/09/19 02:15:41;;;;;;;15.10;2.45;;;;;;;;;;4999400;28;92918;-66
2022/09/19 02:18:13;;;;;;;18.17;2.50;;;;;;;;;;5023729;28;92534;-66
2022/09/19 02:20:41;;;;;;;11.77;2.13;;;;;;;;;;4997617;28;93211;-65
2022/09/19 02:23:15;;;;;;;19.88;2.13;;;;;;;;;;4994798;28;95830;-66
2022/09/19 02:25:42;;;;;;;16.73;2.47;;;;;;;;;;4995198;28;93871;-65
2022/09/19 02:28:11;;;;;;;12.38;2.28;;;;;;;;;;4988475;28;93480;-66
2022/09/19 02:30:38;;;;;;;14.15;2.17;;;;;;;;;;4979509;28;93384;-66
2022/09/19 02:33:06;;;;;;;10.43;1.83;;;;;;;;;;4999925;28;92533;-65
2022/09/19 02:35:46;;;;;;;17.02;2.63;;;;;;;;;;4995597;28;93375;-66
2022/09/19 02:38:31;;;;;;;20.35;2.70;;;;;;;;;;4995750;28;92524;-66
2022/09/19 02:41:03;;;;;;;13.65;2.22;;;;;;;;;;5002970;28;93152;-66
2022/09/19 02:43:38;;;;;;;15.80;3.05;;;;;;;;;;5016873;28;93473;-66
2022/09/19 02:46:07;;;;;;;11.48;1.98;;;;;;;;;;5003228;28;93555;-66
2022/09/19 02:48:42;;;;;;;19.63;2.70;;;;;;;;;;4977574;28;96656;-66
2022/09/19 02:51:20;;;;;;;19.25;2.40;;;;;;;;;;4994258;28;93458;-65
2022/09/19 02:53:51;;;;;;;17.48;2.88;;;;;;;;;;4995245;28;92516;-66
2022/09/19 02:56:19;;;;;;;15.35;2.58;;;;;;;;;;4995694;28;93458;-67
2022/09/19 02:58:50;;;;;;;13.95;2.22;;;;;;;;;;4995883;28;92441;-66
2022/09/19 03:01:21;;;;;;;23.70;2.88;;;;;;;;;;4992498;28;93102;-67
2022/09/19 03:06:50;;;;;;;19.08;2.33;;;;;;;;;;4993782;28;93063;-66
2022/09/19 03:09:18;;;;;;;14.90;2.60;;;;;;;;;;4977914;28;92633;-66
2022/09/19 03:11:49;;;;;;;19.60;2.67;;;;;;;;;;4984169;28;93759;-66
2022/09/19 03:14:16;;;;;;;23.80;2.90;;;;;;;;;;4994456;28;94784;-65
2022/09/19 03:16:47;;;;;;;13.13;2.08;;;;;;;;;;5027646;27;95492;-65
2022/09/19 03:19:13;;;;;;;15.10;1.70;;;;;;;;;;4989308;28;92515;-65
2022/09/19 03:21:41;;;;;;;12.98;1.90;;;;;;;;;;4994276;28;93342;-66
2022/09/19 03:24:08;;;;;;;13.40;2.13;;;;;;;;;;4994372;28;93453;-65
2022/09/19 03:26:35;;;;;;;19.17;2.63;;;;;;;;;;4995548;28;92458;-65
2022/09/19 03:29:06;;;;;;;15.32;2.17;;;;;;;;;;4994200;28;93096;-65
2022/09/19 03:31:32;;;;;;;20.08;2.03;;;;;;;;;;5024811;28;92724;-66
2022/09/19 03:33:59;;;;;;;13.82;2.45;;;;;;;;;;4993008;28;92574;-66
2022/09/19 03:36:26;;;;;;;12.23;2.03;;;;;;;;;;4994850;28;93164;-65
2022/09/19 03:38:52;;;;;;;14.13;2.13;;;;;;;;;;4994999;28;95752;-66
2022/09/19 03:41:19;;;;;;;24.25;2.67;;;;;;;;;;5025028;27;95815;-66
2022/09/19 03:43:46;;;;;;;21.08;2.83;;;;;;;;;;4994444;28;93423;-65
2022/09/19 03:46:13;;;;;;;9.48;1.83;;;;;;;;;;4995385;28;92648;-65
2022/09/19 03:48:40;;;;;;;11.73;1.85;;;;;;;;;;4990466;28;93760;-66
2022/09/19 03:51:07;;;;;;;16.35;2.88;;;;;;;;;;4986338;28;93437;-66
2022/09/19 03:53:33;;;;;;;15.48;2.38;;;;;;;;;;4994549;28;92430;-66
2022/09/19 03:56:00;;;;;;;16.67;2.10;;;;;;;;;;4994639;28;93207;-65
2022/09/19 03:58:26;;;;;;;16.88;2.65;;;;;;;;;;4994436;28;93430;-65
2022/09/19 04:00:53;;;;;;;9.27;1.80;;;;;;;;;;4996104;28;92461;-66
2022/09/19 04:03:23;;;;;;;13.10;2.08;;;;;;;;;;4989311;28;95870;-66
2022/09/19 04:05:50;;;;;;;20.20;2.30;;;;;;;;;;4987018;28;94194;-66
2022/09/19 04:08:16;;;;;;;17.48;2.20;;;;;;;;;;4994014;28;93034;-65
2022/09/19 04:10:42;;;;;;;12.18;2.22;;;;;;;;;;4992136;28;93879;-65
2022/09/19 04:13:13;;;;;;;10.50;2.13;;;;;;;;;;4991759;28;93828;-65
2022/09/19 04:15:40;;;;;;;14.82;1.65;;;;;;;;;;4986798;28;94310;-66
2022/09/19 04:18:06;;;;;;;14.27;1.88;;;;;;;;;;4995022;28;93707;-65
2022/09/19 04:20:33;;;;;;;20.15;2.90;;;;;;;;;;4995023;28;91687;-65
2022/09/19 04:23:00;;;;;;;18.55;2.45;;;;;;;;;;4996187;28;92772;-66
2022/09/19 04:25:29;;;;;;;16.85;3.30;;;;;;;;;;4985947;28;92551;-65
2022/09/19 04:27:56;;;;;;;9.80;1.70;;;;;;;;;;4986211;28;94915;-65
2022/09/19 04:30:24;;;;;;;13.15;2.15;;;;;;;;;;4998061;28;93420;-66
2022/09/19 04:32:51;;;;;;;16.63;2.13;;;;;;;;;;4998409;28;92468;-66
2022/09/19 04:35:18;;;;;;;10.88;2.40;;;;;;;;;;4995083;28;93177;-66
2022/09/19 04:37:45;;;;;;;15.80;2.47;;;;;;;;;;4993373;28;93364;-65
2022/09/19 04:40:11;;;;;;;18.48;2.97;;;;;;;;;;4994530;28;92840;-66
2022/09/19 04:42:37;;;;;;;13.27;2.13;;;;;;;;;;4999394;28;93142;-66
2022/09/19 04:45:04;;;;;;;11.35;1.73;;;;;;;;;;5030201;28;93735;-66
2022/09/19 04:47:32;;;;;;;21.35;2.53;;;;;;;;;;4998679;28;92531;-66
2022/09/19 04:49:59;;;;;;;11.50;1.92;;;;;;;;;;5024342;28;96047;-66
2022/09/19 04:52:30;;;;;;;24.92;2.17;;;;;;;;;;4993144;28;94946;-65
2022/09/19 04:54:56;;;;;;;13.68;2.50;;;;;;;;;;5026572;28;95683;-66
2022/09/19 04:57:26;;;;;;;18.75;3.00;;;;;;;;;;4993806;28;93725;-66
2022/09/19 04:59:55;;;;;;;10.75;2.75;;;;;;;;;;5024609;28;92452;-66
2022/09/19 05:02:21;;;;;;;17.00;2.72;;;;;;;;;;4994668;28;93291;-66
2022/09/19 05:04:47;;;;;;;13.40;2.42;;;;;;;;;;4994389;28;93292;-66
2022/09/19 05:07:14;;;;;;;15.68;3.03;;;;;;;;;;5024884;28;92517;-66
2022/09/19 05:09:42;;;;;;;14.93;2.45;;;;;;;;;;5023847;28;93373;-66
2022/09/19 05:12:09;;;;;;;17.35;2.65;;;;;;;;;;5016693;28;92556;-67
2022/09/19 05:14:35;;;;;;;17.25;2.42;;;;;;;;;;4989524;28;93151;-65
2022/09/19 05:17:02;;;;;;;21.20;2.33;;;;;;;;;;4992094;28;96132;-66
2022/09/19 05:19:28;;;;;;;19.85;2.17;;;;;;;;;;5023315;28;92811;-65
2022/09/19 05:21:54;;;;;;;16.95;2.50;;;;;;;;;;4994367;28;93132;-65
2022/09/19 05:24:21;;;;;;;12.90;1.98;;;;;;;;;;4993741;28;93501;-66
2022/09/19 05:26:47;;;;;;;7.43;1.70;;;;;;;;;;4997388;28;92738;-66
2022/09/19 05:29:13;;;;;;;9.52;1.60;;;;;;;;;;5000614;28;93418;-66
2022/09/19 05:31:40;;;;;;;10.50;2.20;;;;;;;;;;5010670;28;92474;-65
2022/09/19 05:34:09;;;;;;;13.98;2.70;;;;;;;;;;4990687;28;93153;-66
2022/09/19 05:36:35;;;;;;;19.45;2.72;;;;;;;;;;4997307;28;93408;-66
2022/09/19 05:39:01;;;;;;;13.40;2.85;;;;;;;;;;4993905;28;92492;-65
2022/09/19 05:41:28;;;;;;;19.80;2.58;;;;;;;;;;4992421;28;94819;-67
2022/09/19 05:43:54;;;;;;;12.73;2.30;;;;;;;;;;4993800;28;93575;-66
2022/09/19 05:46:20;;;;;;;20.65;2.15;;;;;;;;;;4998332;28;92500;-66
2022/09/19 05:48:47;;;;;;;15.23;2.28;;;;;;;;;;5003913;28;93185;-66
2022/09/19 05:51:14;;;;;;;12.60;2.58;;;;;;;;;;4986953;28;93640;-66
2022/09/19 05:53:52;;;;;;;15.32;2.28;;;;;;;;;;4996586;28;93241;-65
2022/09/19 05:56:18;;;;;;;22.27;2.50;;;;;;;;;;4998469;28;93633;-66
2022/09/19 05:58:44;;;;;;;11.15;1.77;;;;;;;;;;4998125;28;91979;-65
2022/09/19 06:01:12;;;;;;;10.95;2.08;;;;;;;;;;5023633;28;93439;-66
2022/09/19 06:03:39;;;;;;;13.27;2.28;;;;;;;;;;4991043;28;93760;-66
2022/09/19 06:06:09;;;;;;;20.42;2.55;;;;;;;;;;5025731;28;95093;-66
2022/09/19 06:08:35;;;;;;;14.77;2.08;;;;;;;;;;4995715;28;95534;-66
2022/09/19 06:11:02;;;;;;;13.25;1.98;;;;;;;;;;5000731;28;93772;-65
2022/09/19 06:14:13;;;;;;;12.10;2.50;;;;;;;;;;4997141;28;93976;-66
2022/09/19 06:16:14;;;;;;;15.75;2.70;;;;;;;;;;4998487;28;95095;-66
2022/09/19 06:18:41;;;;;;;7.13;1.95;;;;;;;;;;4997173;28;92444;-65
2022/09/19 06:21:12;;;;;;;11.07;1.85;;;;;;;;;;4995672;28;93860;-66
2022/09/19 06:23:39;;;;;;;23.35;2.30;;;;;;;;;;5002806;28;92717;-65
2022/09/19 06:26:05;;;;;;;18.23;2.63;;;;;;;;;;4996951;28;94075;-66
2022/09/19 06:28:31;;;;;;;14.18;1.75;;;;;;;;;;4996541;28;93470;-65
2022/09/19 06:31:04;;;;;;;13.73;2.10;;;;;;;;;;4993548;28;95785;-65
2022/09/19 06:33:31;;;;;;;9.65;1.63;;;;;;;;;;5000220;28;92495;-66
2022/09/19 06:36:00;;;;;;;18.30;2.20;;;;;;;;;;5025766;28;93814;-65
2022/09/19 06:38:27;;;;;;;19.47;2.40;;;;;;;;;;4996609;28;92529;-65
2022/09/19 06:40:53;;;;;;;15.70;1.98;;;;;;;;;;4998218;28;93574;-63
2022/09/19 06:43:21;;;;;;;9.48;1.65;;;;;;;;;;4996447;28;93732;-64
2022/09/19 06:45:47;;;;;;;10.52;1.88;;;;;;;;;;4993979;28;92532;-63
2022/09/19 06:48:14;;;;;;;16.33;1.75;;;;;;;;;;4993060;28;94156;-64
2022/09/19 06:50:43;;;;;;;19.23;2.65;;;;;;;;;;5025059;28;94347;-63
2022/09/19 06:53:10;;;;;;;11.50;1.48;;;;;;;;;;4996938;28;92451;-64
2022/09/19 06:55:36;;;;;;;14.57;2.22;;;;;;;;;;4998511;28;94804;-64
2022/09/19 06:58:04;;;;;;;11.77;2.50;;;;;;;;;;4992873;28;92507;-63
2022/09/19 07:00:32;;;;;;;20.63;2.20;;;;;;;;;;4989498;28;93142;-64
2022/09/19 07:03:00;;;;;;;17.20;2.42;;;;;;;;;;4991231;28;92490;-64
2022/09/19 07:05:27;;;;;;;15.27;1.60;;;;;;;;;;4989459;28;95586;-64
2022/09/19 07:07:53;;;;;;;10.13;1.88;;;;;;;;;;4991990;28;93163;-64
2022/09/19 07:10:20;;;;;;;14.02;3.45;;;;;;;;;;4994797;28;93414;-64
2022/09/19 07:12:50;;;;;;;17.40;2.28;;;;;;;;;;4991902;28;91790;-63
2022/09/19 07:15:22;;;;;;;9.45;1.63;;;;;;;;;;4986279;28;92538;-63
2022/09/19 07:17:49;;;;;;;11.07;1.42;;;;;;;;;;4997132;28;93402;-63
2022/09/19 07:20:15;;;;;;;10.25;1.63;;;;;;;;;;4991878;28;95692;-63
2022/09/19 07:22:41;;;;;;;14.32;2.47;;;;;;;;;;4991199;28;93449;-63
2022/09/19 07:25:13;;;;;;;8.70;1.77;;;;;;;;;;4989352;28;92736;-63
2022/09/19 07:27:44;;;;;;;13.48;2.42;;;;;;;;;;4998142;28;93110;-63
2022/09/19 07:30:10;;;;;;;13.15;2.88;;;;;;;;;;4996993;28;93566;-63
2022/09/19 07:32:36;;;;;;;13.65;2.22;;;;;;;;;;4988386;28;92694;-63
2022/09/19 07:35:03;;;;;;;7.30;1.45;;;;;;;;;;5007491;28;93139;-64
2022/09/19 07:37:29;;;;;;;14.50;1.77;;;;;;;;;;4981367;28;94907;-64
2022/09/19 07:39:55;;;;;;;21.90;3.05;;;;;;;;;;4997692;28;92542;-64
2022/09/19 07:42:34;;;;;;;13.25;1.52;;;;;;;;;;4993869;28;93976;-63
2022/09/19 07:45:00;;;;;;;15.05;2.25;;;;;;;;;;4994410;28;94908;-63
2022/09/19 07:47:30;;;;;;;12.63;2.42;;;;;;;;;;4990759;28;96695;-63
2022/09/19 07:49:57;;;;;;;10.68;2.10;;;;;;;;;;4988861;28;93792;-64
2022/09/19 07:52:23;;;;;;;9.75;1.50;;;;;;;;;;4974054;28;92516;-63
2022/09/19 07:54:50;;;;;;;8.57;1.30;;;;;;;;;;4994338;28;93132;-63
2022/09/19 07:57:16;;;;;;;11.52;1.60;;;;;;;;;;4992177;28;93857;-64
2022/09/19 07:59:43;;;;;;;13.23;2.08;;;;;;;;;;4992508;28;92928;-63
2022/09/19 08:02:09;;;;;;;11.50;1.90;;;;;;;;;;4994597;28;92664;-64
2022/09/19 08:04:36;;;;;;;5.68;1.40;;;;;;;;;;4994698;28;92441;-63
2022/09/19 08:07:03;;;;;;;7.70;1.50;;;;;;;;;;4992533;28;94116;-64
2022/09/19 08:09:30;;;;;;;17.58;1.88;;;;;;;;;;4991017;28;95803;-64
2022/09/19 08:11:57;;;;;;;8.32;1.67;;;;;;;;;;4995548;28;92483;-63
2022/09/19 08:14:23;;;;;;;10.35;2.20;;;;;;;;;;4994643;28;93365;-64
2022/09/19 08:16:53;;;;;;;16.85;2.30;;;;;;;;;;4991841;28;92550;-64
2022/09/19 08:19:19;;;;;;;15.52;1.98;;;;;;;;;;4994734;28;92491;-64
2022/09/19 08:21:45;;;;;;;16.45;2.42;;;;;;;;;;4997404;28;93164;-64
2022/09/19 08:24:11;;;;;;;11.77;1.88;;;;;;;;;;4995438;28;92424;-64
2022/09/19 08:26:38;;;;;;;16.38;2.58;;;;;;;;;;4994199;28;93157;-64
2022/09/19 08:29:04;;;;;;;13.27;1.80;;;;;;;;;;4988011;28;93392;-64
2022/09/19 08:31:31;;;;;;;12.93;2.05;;;;;;;;;;4993525;28;93975;-63
2022/09/19 08:33:57;;;;;;;12.68;1.85;;;;;;;;;;4992512;28;94881;-63
2022/09/19 08:36:24;;;;;;;9.55;2.28;;;;;;;;;;4992942;28;93433;-63
2022/09/19 08:38:50;;;;;;;19.30;2.03;;;;;;;;;;4994354;28;92527;-64
2022/09/19 08:41:39;;;;;;;16.08;1.75;;;;;;;;;;4994425;28;93232;-63
2022/09/19 08:44:26;;;;;;;16.33;2.47;;;;;;;;;;5008529;28;94790;-63
2022/09/19 08:46:58;;;;;;;13.18;1.92;;;;;;;;;;4989658;28;94273;-64
2022/09/19 08:49:40;;;;;;;11.15;1.92;;;;;;;;;;4990319;28;93437;-63
2022/09/19 08:52:07;;;;;;;16.40;1.85;;;;;;;;;;4995523;28;91726;-63
2022/09/19 08:54:36;;;;;;;10.25;1.42;;;;;;;;;;4993114;28;93393;-64
2022/09/19 08:57:03;;;;;;;8.90;1.35;;;;;;;;;;4993985;28;95071;-64
2022/09/19 08:59:33;;;;;;;7.55;1.50;;;;;;;;;;4992071;28;96052;-63
2022/09/19 09:02:05;;;;;;;6.22;1.10;;;;;;;;;;4994260;28;95617;-63
2022/09/19 09:04:49;;;;;;;11.60;2.00;;;;;;;;;;4991109;28;94079;-64
2022/09/19 09:07:21;;;;;;;8.23;1.20;;;;;;;;;;4992731;28;92479;-64
2022/09/19 09:09:53;;;;;;;4.15;1.10;;;;;;;;;;4983958;28;93462;-64
2022/09/19 09:12:26;;;;;;;11.00;2.03;;;;;;;;;;4996255;28;92449;-64
2022/09/19 09:15:07;;;;;;;13.25;1.48;;;;;;;;;;4990106;28;93488;-63
2022/09/19 09:18:00;;;;;;;10.60;1.30;;;;;;;;;;4985648;28;92688;-63
2022/09/19 09:20:31;;;;;;;10.55;1.48;;;;;;;;;;4996069;28;92410;-63
2022/09/19 09:23:10;;;;;;;5.70;1.00;;;;;;;;;;4997992;28;93153;-63
2022/09/19 09:25:39;;;;;;;4.43;1.03;;;;;;;;;;4996080;28;96088;-63
2022/09/19 09:28:25;;;;;;;6.40;1.50;;;;;;;;;;4996485;28;92467;-64
2022/09/19 09:30:53;;;;;;;9.48;1.30;;;;;;;;;;4983977;28;93042;-64
2022/09/19 09:33:28;;;;;;;9.10;1.40;;;;;;;;;;4993262;28;93835;-63
2022/09/19 09:35:57;;;;;;;11.23;1.42;;;;;;;;;;4998409;28;93218;-64
2022/09/19 09:38:24;;;;;;;7.38;1.80;;;;;;;;;;4995620;28;93461;-64
2022/09/19 09:44:15;;;;;;;9.65;1.85;;;;;;;;;;4998619;28;97517;-64
2022/09/19 09:46:45;;;;;;;7.85;1.48;;;;;;;;;;4988387;28;93473;-63
2022/09/19 09:49:14;;;;;;;13.77;1.95;;;;;;;;;;4996412;28;92481;-64
2022/09/19 09:51:46;;;;;;;5.95;1.17;;;;;;;;;;4999764;28;94825;-63
2022/09/19 09:57:16;;;;;;;7.30;1.83;;;;;;;;;;4995826;28;93432;-63
2022/09/19 10:05:28;;;;;;;8.15;1.70;;;;;;;;;;4993515;28;94512;-64
2022/09/19 10:07:58;;;;;;;9.50;1.58;;;;;;;;;;5015958;28;93787;-63
2022/09/19 10:10:25;;;;;;;;;;;;;;;;;;4997850;28;91623;-63
2022/09/19 10:13:02;;;;;;;7.10;1.13;;;;;;;;;;4998509;28;122271;-64
2022/09/19 10:15:28;;;;;;;7.18;1.40;;;;;;;;;;5001042;28;92674;-63
2022/09/19 10:18:05;;;;;;;10.88;1.65;;;;;;;;;;4994486;28;95274;-63
2022/09/19 10:20:34;;;;;;;7.65;1.70;;;;;;;;;;4984723;28;93444;-63
2022/09/19 10:23:00;;;;;;;16.60;2.40;;;;;;;;;;4977640;28;92436;-64
2022/09/19 10:25:27;;;;;;;8.15;1.50;;;;;;;;;;4977136;28;93117;-63
2022/09/19 10:27:53;;;;;;;9.88;1.88;;;;;;;;;;4990547;28;93444;-65
2022/09/19 10:30:24;;;;;;;10.43;1.77;;;;;;;;;;4998107;28;92606;-63
2022/09/19 10:32:51;;;;;;;14.60;1.77;;;;;;;;;;5006616;28;93134;-63
2022/09/19 10:35:27;;;;;;;7.10;1.40;;;;;;;;;;4988341;28;92600;-64
2022/09/19 10:37:53;;;;;;;10.60;1.70;;;;;;;;;;4999806;28;92719;-63
2022/09/19 10:40:19;;;;;;;12.48;2.33;;;;;;;;;;4996706;28;93359;-63
2022/09/19 10:42:47;;;;;;;6.72;1.30;;;;;;;;;;4994162;28;94909;-63
2022/09/19 10:45:24;;;;;;;4.43;1.00;;;;;;;;;;4994537;28;96641;-63
2022/09/19 10:47:53;;;;;;;3.97;0.85;;;;;;;;;;4994897;28;94373;-63
2022/09/19 10:50:20;;;;;;;6.65;1.20;;;;;;;;;;4994048;28;92394;-64
2022/09/19 10:52:47;;;;;;;4.95;0.93;;;;;;;;;;4995783;28;95211;-63
2022/09/19 10:55:22;;;;;;;5.32;1.17;;;;;;;;;;4993714;28;94442;-63
2022/09/19 10:57:59;;;;;;;2.15;0.77;;;;;;;;;;4996117;28;92476;-63
2022/09/19 11:00:31;;;;;;;4.63;1.02;;;;;;;;;;5004081;28;94091;-63
2022/09/19 11:03:05;;;;;;;3.38;0.98;;;;;;;;;;4995412;28;92634;-63
2022/09/19 11:05:33;;;;;;;4.72;1.02;;;;;;;;;;5024992;28;93211;-63
2022/09/19 11:08:00;;;;;;;6.32;1.60;;;;;;;;;;4991459;28;94846;-63
2022/09/19 11:10:30;;;;;;;9.70;1.50;;;;;;;;;;4996525;28;92729;-63
2022/09/19 11:13:04;;;;;;;8.18;1.10;;;;;;;;;;4995153;28;93217;-63
2022/09/19 11:15:31;;;;;;;5.93;1.58;;;;;;;;;;4993126;28;93601;-63
2022/09/19 11:18:11;;;;;;;7.32;1.10;;;;;;;;;;4982430;28;92497;-63
2022/09/19 11:20:47;;;;;;;6.90;1.70;;;;;;;;;;4979142;28;93147;-63
2022/09/19 11:23:28;;;;;;;4.35;1.10;;;;;;;;;;4999309;28;93539;-63
2022/09/19 11:26:18;;;;;;;9.68;1.40;;;;;;;;;;4994828;28;93090;-63
2022/09/19 11:28:47;;;;;;;8.63;1.30;;;;;;;;;;4994516;28;93431;-64
2022/09/19 11:31:34;;;;;;;8.88;1.50;;;;;;;;;;4980896;28;93596;-64
2022/09/19 11:34:23;;;;;;;5.32;1.50;;;;;;;;;;4996936;28;95132;-64
2022/09/19 11:37:19;;;;;;;4.55;1.20;;;;;;;;;;4995349;28;93788;-64
2022/09/19 11:40:04;;;;;;;4.72;1.10;;;;;;;;;;4995918;28;92477;-64
2022/09/19 11:42:30;;;;;;;4.45;1.20;;;;;;;;;;4995224;28;93353;-64
2022/09/19 11:44:56;;;;;;;8.40;1.15;;;;;;;;;;4995634;28;94174;-64
2022/09/19 11:47:22;;;;;;;19.33;2.20;;;;;;;;;;4996520;28;92444;-64
2022/09/19 11:49:57;;;;;;;8.82;1.55;;;;;;;;;;4991957;28;93428;-64
2022/09/19 11:52:43;;;;;;;4.07;1.08;;;;;;;;;;4993752;28;92655;-63
2022/09/19 11:55:28;;;;;;;13.07;1.20;;;;;;;;;;4992357;28;92584;-63
2022/09/19 11:58:13;;;;;;;10.15;1.50;;;;;;;;;;4976031;28;93225;-63
2022/09/19 12:01:06;;;;;;;6.03;0.90;;;;;;;;;;4974294;28;95148;-63
2022/09/19 12:03:44;;;;;;;7.20;1.73;;;;;;;;;;4966975;28;96897;-63
2022/09/19 12:06:30;;;;;;;7.40;1.30;;;;;;;;;;4976330;28;93806;-63
2022/09/19 12:09:05;;;;;;;5.43;1.15;;;;;;;;;;4992791;28;93939;-63
2022/09/19 12:11:37;;;;;;;5.88;1.48;;;;;;;;;;5027164;28;93377;-63
2022/09/19 12:14:08;;;;;;;4.97;1.10;;;;;;;;;;4995388;28;92444;-63
2022/09/19 12:16:40;;;;;;;7.35;1.10;;;;;;;;;;4993640;28;93062;-63
2022/09/19 12:19:15;;;;;;;7.97;1.50;;;;;;;;;;5027576;28;93844;-64
2022/09/19 12:21:47;;;;;;;2.90;0.70;;;;;;;;;;4993618;28;92427;-64
2022/09/19 12:27:17;;;;;;;6.63;1.02;;;;;;;;;;4993799;28;95572;-64
2022/09/19 12:29:55;;;;;;;7.75;1.33;;;;;;;;;;4994468;28;92457;-64
2022/09/19 12:32:22;;;;;;;5.18;1.38;;;;;;;;;;4997042;28;93590;-63
2022/09/19 12:34:59;;;;;;;5.88;1.50;;;;;;;;;;4992656;28;92583;-63
2022/09/19 12:37:35;;;;;;;6.43;1.00;;;;;;;;;;4987245;28;93077;-64
2022/09/19 12:40:05;;;;;;;4.13;1.30;;;;;;;;;;4994031;28;93744;-64
2022/09/19 12:42:36;;;;;;;5.38;1.40;;;;;;;;;;4993994;28;92453;-64
2022/09/19 12:45:09;;;;;;;8.65;1.70;;;;;;;;;;4996399;28;94288;-64
2022/09/19 12:47:49;;;;;;;5.57;1.10;;;;;;;;;;4994491;28;94756;-64
2022/09/19 12:50:15;;;;;;;;;;;;;;;;;;4978104;28;92509;-64
2022/09/19 12:52:53;;;;;;;5.60;1.33;;;;;;;;;;4989852;28;123077;-64
2022/09/19 12:55:22;;;;;;;6.18;1.52;;;;;;;;;;4989213;28;92559;-63
2022/09/19 12:57:55;;;;;;;5.57;0.88;;;;;;;;;;5012325;28;94431;-63
2022/09/19 13:00:22;;;;;;;5.93;1.48;;;;;;;;;;4987648;28;93934;-63
2022/09/19 13:02:51;;;;;;;5.88;1.17;;;;;;;;;;5023597;27;92936;-64
2022/09/19 13:05:34;;;;;;;7.40;1.43;;;;;;;;;;4988668;28;94172;-63
2022/09/19 13:08:02;;;;;;;4.68;0.93;;;;;;;;;;4993898;28;92450;-63
2022/09/19 13:11:01;;;;;;;6.70;1.23;;;;;;;;;;4993966;28;91921;-63
2022/09/19 13:13:34;;;;;;;5.07;1.05;;;;;;;;;;4952213;28;95034;-63
2022/09/19 13:16:06;;;;;;;7.35;1.30;;;;;;;;;;4956292;28;93422;-64
2022/09/19 13:24:05;;;;;;;6.00;1.48;;;;;;;;;;4951000;28;92644;-64
2022/09/19 13:26:35;;;;;;;7.70;1.20;;;;;;;;;;4951436;28;93136;-63
2022/09/19 13:29:07;;;;;;;6.38;1.10;;;;;;;;;;4951904;28;94922;-64
2022/09/19 13:31:56;;;;;;;5.53;1.25;;;;;;;;;;4933423;28;92491;-64
2022/09/19 13:34:34;;;;;;;7.22;1.90;;;;;;;;;;4950027;28;93672;-63
2022/09/19 13:37:04;;;;;;;8.82;1.52;;;;;;;;;;4953648;28;93237;-63
2022/09/19 13:39:49;;;;;;;6.72;1.10;;;;;;;;;;4935369;28;92568;-64
2022/09/19 13:42:23;;;;;;;5.55;0.90;;;;;;;;;;4936424;28;92732;-64
2022/09/19 13:45:08;;;;;;;7.80;1.20;;;;;;;;;;4944312;28;95051;-63
2022/09/19 13:47:39;;;;;;;3.47;1.17;;;;;;;;;;4952573;28;95529;-63
2022/09/19 13:50:22;;;;;;;4.20;0.98;;;;;;;;;;4984505;28;93386;-63
2022/09/19 13:53:00;;;;;;;4.32;1.00;;;;;;;;;;4994310;28;92330;-63
2022/09/19 13:55:30;;;;;;;2.28;0.60;;;;;;;;;;4993495;28;96019;-64
2022/09/19 13:58:17;;;;;;;2.63;0.93;;;;;;;;;;4992716;28;95732;-64
2022/09/19 14:00:44;;;;;;;3.30;0.85;;;;;;;;;;4994379;28;92612;-63
2022/09/19 14:03:16;;;;;;;6.38;0.98;;;;;;;;;;4994273;28;93291;-63
2022/09/19 14:05:43;;;;;;;5.15;1.35;;;;;;;;;;5006602;28;92445;-64
2022/09/19 14:08:31;;;;;;;8.15;1.15;;;;;;;;;;4979189;28;93245;-63
2022/09/19 14:11:29;;;;;;;5.45;1.08;;;;;;;;;;4983222;28;95485;-64
2022/09/19 14:13:56;;;;;;;3.60;0.80;;;;;;;;;;5029955;28;92368;-63
2022/09/19 14:16:30;;;;;;;5.20;1.00;;;;;;;;;;5030150;27;94150;-63
2022/09/19 14:18:57;;;;;;;7.15;1.35;;;;;;;;;;4989468;28;92514;-63
2022/09/19 14:21:24;;;;;;;9.60;1.38;;;;;;;;;;5008930;28;92530;-63
2022/09/19 14:23:55;;;;;;;7.38;1.08;;;;;;;;;;5017419;28;94145;-63
2022/09/19 14:26:48;;;;;;;8.93;1.50;;;;;;;;;;5019967;28;93805;-64
2022/09/19 14:29:22;;;;;;;6.00;1.08;;;;;;;;;;4990897;28;93338;-64
2022/09/19 14:32:02;;;;;;;7.00;1.65;;;;;;;;;;4984886;28;93314;-64
2022/09/19 14:34:32;;;;;;;11.77;1.85;;;;;;;;;;4992543;28;92404;-64
2022/09/19 14:37:22;;;;;;;6.75;1.10;;;;;;;;;;4987102;28;94776;-64
2022/09/19 14:39:54;;;;;;;8.77;1.33;;;;;;;;;;4988049;28;94917;-63
2022/09/19 14:42:38;;;;;;;6.15;0.93;;;;;;;;;;4995253;28;92442;-64
2022/09/19 14:45:11;;;;;;;6.18;1.25;;;;;;;;;;4995476;28;93440;-64
2022/09/19 14:47:39;;;;;;;3.67;1.10;;;;;;;;;;4992976;28;93401;-63
2022/09/19 14:50:23;;;;;;;11.93;2.22;;;;;;;;;;4999339;28;92510;-64
2022/09/19 14:52:59;;;;;;;13.80;2.40;;;;;;;;;;4996854;28;93800;-64
2022/09/19 14:55:35;;;;;;;13.60;2.05;;;;;;;;;;4995807;28;91754;-64
2022/09/19 14:58:02;;;;;;;10.05;2.30;;;;;;;;;;4994776;28;92481;-64
2022/09/19 15:00:31;;;;;;;14.65;2.30;;;;;;;;;;4996641;28;93442;-63
2022/09/19 15:02:58;;;;;;;14.20;2.10;;;;;;;;;;4994930;28;95321;-64
2022/09/19 15:05:27;;;;;;;14.70;2.40;;;;;;;;;;4989587;28;95613;-64
2022/09/19 15:07:54;;;;;;;6.47;1.63;;;;;;;;;;4988022;28;96267;-64
2022/09/19 15:10:33;;;;;;;16.90;2.95;;;;;;;;;;4996021;28;92466;-64
2022/09/19 15:13:28;;;;;;;14.60;2.22;;;;;;;;;;4981920;28;93641;-64
2022/09/19 15:15:58;;;;;;;15.05;2.45;;;;;;;;;;4988570;28;92516;-64
2022/09/19 15:18:25;;;;;;;12.20;2.42;;;;;;;;;;4990995;28;92466;-64
2022/09/19 15:20:53;;;;;;;7.88;1.85;;;;;;;;;;4996602;28;92657;-64
2022/09/19 15:23:20;;;;;;;11.65;1.90;;;;;;;;;;4996351;28;92446;-64
2022/09/19 15:25:47;;;;;;;15.27;2.55;;;;;;;;;;5028198;28;93112;-64